sensor_id;sensor_type;location;lat;lon;timestamp;P1;durP1;ratioP1;P2;durP2;ratioP2
261;SDS011;114;48.260;10.988;2024-02-26T00:01:50;3.77;;;3.40;;
261;SDS011;114;48.260;10.988;2024-02-26T00:04:16;5.20;;;3.27;;
261;SDS011;114;48.260;10.988;2024-02-26T00:06:42;6.00;;;3.50;;
261;SDS011;114;48.260;10.988;2024-02-26T00:09:08;3.20;;;3.10;;
261;SDS011;114;48.260;10.988;2024-02-26T00:11:37;3.47;;;3.27;;
261;SDS011;114;48.260;10.988;2024-02-26T00:14:03;3.70;;;3.50;;
261;SDS011;114;48.260;10.988;2024-02-26T00:16:29;4.70;;;3.60;;
261;SDS011;114;48.260;10.988;2024-02-26T00:18:55;3.50;;;3.30;;
261;SDS011;114;48.260;10.988;2024-02-26T00:21:21;3.67;;;3.37;;
261;SDS011;114;48.260;10.988;2024-02-26T00:23:47;5.17;;;3.40;;
261;SDS011;114;48.260;10.988;2024-02-26T00:26:14;3.80;;;3.50;;
261;SDS011;114;48.260;10.988;2024-02-26T00:28:40;2.87;;;2.67;;
261;SDS011;114;48.260;10.988;2024-02-26T00:31:06;3.43;;;3.10;;
261;SDS011;114;48.260;10.988;2024-02-26T00:33:31;3.43;;;3.23;;
261;SDS011;114;48.260;10.988;2024-02-26T00:35:57;3.10;;;2.80;;
261;SDS011;114;48.260;10.988;2024-02-26T00:38:23;4.10;;;3.07;;
261;SDS011;114;48.260;10.988;2024-02-26T00:40:48;2.93;;;2.73;;
261;SDS011;114;48.260;10.988;2024-02-26T00:43:14;3.40;;;2.70;;
261;SDS011;114;48.260;10.988;2024-02-26T00:45:40;2.73;;;2.53;;
261;SDS011;114;48.260;10.988;2024-02-26T00:48:06;3.70;;;3.20;;
261;SDS011;114;48.260;10.988;2024-02-26T00:50:32;3.00;;;2.80;;
261;SDS011;114;48.260;10.988;2024-02-26T00:52:59;3.40;;;3.17;;
261;SDS011;114;48.260;10.988;2024-02-26T00:55:25;2.93;;;2.73;;
261;SDS011;114;48.260;10.988;2024-02-26T00:57:51;3.10;;;2.80;;
261;SDS011;114;48.260;10.988;2024-02-26T01:00:17;2.40;;;2.20;;
261;SDS011;114;48.260;10.988;2024-02-26T01:02:43;3.20;;;2.90;;
261;SDS011;114;48.260;10.988;2024-02-26T01:05:11;3.10;;;2.90;;
261;SDS011;114;48.260;10.988;2024-02-26T01:07:37;4.07;;;3.67;;
261;SDS011;114;48.260;10.988;2024-02-26T01:10:04;4.00;;;3.70;;
261;SDS011;114;48.260;10.988;2024-02-26T01:12:33;6.70;;;4.17;;
261;SDS011;114;48.260;10.988;2024-02-26T01:15:00;5.90;;;4.90;;
261;SDS011;114;48.260;10.988;2024-02-26T01:17:30;4.57;;;4.20;;
261;SDS011;114;48.260;10.988;2024-02-26T01:19:56;4.63;;;4.23;;
261;SDS011;114;48.260;10.988;2024-02-26T01:22:22;5.00;;;4.40;;
261;SDS011;114;48.260;10.988;2024-02-26T01:24:48;5.93;;;4.00;;
261;SDS011;114;48.260;10.988;2024-02-26T01:27:14;4.50;;;4.20;;
261;SDS011;114;48.260;10.988;2024-02-26T01:29:41;4.60;;;4.23;;
261;SDS011;114;48.260;10.988;2024-02-26T01:32:07;4.90;;;4.40;;
261;SDS011;114;48.260;10.988;2024-02-26T01:34:33;5.77;;;4.20;;
261;SDS011;114;48.260;10.988;2024-02-26T01:36:59;4.87;;;4.40;;
261;SDS011;114;48.260;10.988;2024-02-26T01:39:26;5.23;;;4.73;;
261;SDS011;114;48.260;10.988;2024-02-26T01:41:54;4.30;;;4.00;;
261;SDS011;114;48.260;10.988;2024-02-26T01:44:21;4.00;;;3.70;;
261;SDS011;114;48.260;10.988;2024-02-26T01:46:46;5.40;;;3.37;;
261;SDS011;114;48.260;10.988;2024-02-26T01:49:13;5.33;;;4.93;;
261;SDS011;114;48.260;10.988;2024-02-26T01:51:40;4.13;;;3.83;;
261;SDS011;114;48.260;10.988;2024-02-26T01:54:11;5.10;;;4.60;;
261;SDS011;114;48.260;10.988;2024-02-26T01:56:37;5.13;;;4.63;;
261;SDS011;114;48.260;10.988;2024-02-26T01:59:05;6.80;;;4.50;;
261;SDS011;114;48.260;10.988;2024-02-26T02:01:34;4.43;;;4.03;;
261;SDS011;114;48.260;10.988;2024-02-26T02:04:04;6.33;;;4.70;;
261;SDS011;114;48.260;10.988;2024-02-26T02:06:30;5.57;;;5.00;;
261;SDS011;114;48.260;10.988;2024-02-26T02:08:56;6.90;;;4.50;;
261;SDS011;114;48.260;10.988;2024-02-26T02:11:22;5.00;;;4.50;;
261;SDS011;114;48.260;10.988;2024-02-26T02:13:48;4.90;;;4.57;;
261;SDS011;114;48.260;10.988;2024-02-26T02:16:14;7.10;;;5.20;;
261;SDS011;114;48.260;10.988;2024-02-26T02:18:40;5.60;;;5.10;;
261;SDS011;114;48.260;10.988;2024-02-26T02:21:05;5.40;;;4.90;;
261;SDS011;114;48.260;10.988;2024-02-26T02:23:31;6.27;;;5.63;;
261;SDS011;114;48.260;10.988;2024-02-26T02:25:57;5.00;;;4.60;;
261;SDS011;114;48.260;10.988;2024-02-26T02:28:25;4.73;;;4.37;;
261;SDS011;114;48.260;10.988;2024-02-26T02:30:52;5.33;;;4.37;;
261;SDS011;114;48.260;10.988;2024-02-26T02:33:18;4.53;;;4.20;;
261;SDS011;114;48.260;10.988;2024-02-26T02:35:45;4.40;;;4.10;;
261;SDS011;114;48.260;10.988;2024-02-26T02:38:12;4.93;;;4.40;;
261;SDS011;114;48.260;10.988;2024-02-26T02:40:37;4.60;;;4.20;;
261;SDS011;114;48.260;10.988;2024-02-26T02:43:03;4.37;;;4.03;;
261;SDS011;114;48.260;10.988;2024-02-26T02:45:29;5.40;;;4.80;;
261;SDS011;114;48.260;10.988;2024-02-26T02:47:55;5.27;;;4.77;;
261;SDS011;114;48.260;10.988;2024-02-26T02:50:21;5.10;;;4.60;;
261;SDS011;114;48.260;10.988;2024-02-26T02:52:46;5.40;;;4.90;;
261;SDS011;114;48.260;10.988;2024-02-26T02:55:13;5.20;;;4.70;;
261;SDS011;114;48.260;10.988;2024-02-26T02:57:38;4.93;;;4.53;;
261;SDS011;114;48.260;10.988;2024-02-26T03:00:09;4.40;;;4.10;;
261;SDS011;114;48.260;10.988;2024-02-26T03:02:35;5.40;;;4.90;;
261;SDS011;114;48.260;10.988;2024-02-26T03:05:01;8.23;;;4.80;;
261;SDS011;114;48.260;10.988;2024-02-26T03:07:32;5.53;;;4.00;;
261;SDS011;114;48.260;10.988;2024-02-26T03:09:58;4.90;;;4.47;;
261;SDS011;114;48.260;10.988;2024-02-26T03:12:24;4.50;;;4.20;;
261;SDS011;114;48.260;10.988;2024-02-26T03:14:50;5.20;;;4.80;;
261;SDS011;114;48.260;10.988;2024-02-26T03:17:16;5.10;;;4.60;;
261;SDS011;114;48.260;10.988;2024-02-26T03:19:46;5.60;;;4.70;;
261;SDS011;114;48.260;10.988;2024-02-26T03:22:19;6.17;;;5.00;;
261;SDS011;114;48.260;10.988;2024-02-26T03:24:45;5.20;;;4.70;;
261;SDS011;114;48.260;10.988;2024-02-26T03:27:11;5.30;;;4.80;;
261;SDS011;114;48.260;10.988;2024-02-26T03:29:37;6.30;;;4.43;;
261;SDS011;114;48.260;10.988;2024-02-26T03:32:03;5.20;;;4.80;;
261;SDS011;114;48.260;10.988;2024-02-26T03:34:30;7.10;;;4.83;;
261;SDS011;114;48.260;10.988;2024-02-26T03:36:56;7.33;;;5.53;;
261;SDS011;114;48.260;10.988;2024-02-26T03:39:22;5.63;;;5.23;;
261;SDS011;114;48.260;10.988;2024-02-26T03:41:48;5.30;;;4.90;;
261;SDS011;114;48.260;10.988;2024-02-26T03:44:14;6.37;;;4.77;;
261;SDS011;114;48.260;10.988;2024-02-26T03:46:40;4.87;;;4.57;;
261;SDS011;114;48.260;10.988;2024-02-26T03:49:08;5.57;;;4.77;;
261;SDS011;114;48.260;10.988;2024-02-26T03:51:33;6.47;;;5.17;;
261;SDS011;114;48.260;10.988;2024-02-26T03:54:00;5.40;;;5.00;;
261;SDS011;114;48.260;10.988;2024-02-26T03:56:26;6.70;;;5.23;;
261;SDS011;114;48.260;10.988;2024-02-26T03:58:52;14.00;;;5.50;;
261;SDS011;114;48.260;10.988;2024-02-26T04:01:19;6.03;;;5.43;;
261;SDS011;114;48.260;10.988;2024-02-26T04:03:45;5.77;;;5.20;;
261;SDS011;114;48.260;10.988;2024-02-26T04:06:11;6.00;;;5.00;;
261;SDS011;114;48.260;10.988;2024-02-26T04:08:39;5.93;;;5.30;;
261;SDS011;114;48.260;10.988;2024-02-26T04:11:05;5.43;;;4.93;;
261;SDS011;114;48.260;10.988;2024-02-26T04:13:32;4.83;;;4.43;;
261;SDS011;114;48.260;10.988;2024-02-26T04:15:59;6.80;;;5.20;;
261;SDS011;114;48.260;10.988;2024-02-26T04:18:26;5.67;;;4.83;;
261;SDS011;114;48.260;10.988;2024-02-26T04:20:53;5.27;;;4.87;;
261;SDS011;114;48.260;10.988;2024-02-26T04:23:19;5.13;;;4.67;;
261;SDS011;114;48.260;10.988;2024-02-26T04:25:46;6.90;;;5.30;;
261;SDS011;114;48.260;10.988;2024-02-26T04:28:12;5.50;;;5.00;;
261;SDS011;114;48.260;10.988;2024-02-26T04:30:37;5.23;;;4.70;;
261;SDS011;114;48.260;10.988;2024-02-26T04:33:03;5.13;;;4.57;;
261;SDS011;114;48.260;10.988;2024-02-26T04:35:29;8.63;;;5.50;;
261;SDS011;114;48.260;10.988;2024-02-26T04:37:55;5.73;;;5.03;;
261;SDS011;114;48.260;10.988;2024-02-26T04:40:20;6.87;;;4.93;;
261;SDS011;114;48.260;10.988;2024-02-26T04:42:46;6.03;;;5.53;;
261;SDS011;114;48.260;10.988;2024-02-26T04:45:12;7.23;;;4.93;;
261;SDS011;114;48.260;10.988;2024-02-26T04:47:37;5.80;;;5.30;;
261;SDS011;114;48.260;10.988;2024-02-26T04:50:03;5.17;;;4.70;;
261;SDS011;114;48.260;10.988;2024-02-26T04:52:29;5.80;;;5.30;;
261;SDS011;114;48.260;10.988;2024-02-26T04:54:55;6.17;;;5.43;;
261;SDS011;114;48.260;10.988;2024-02-26T04:57:21;9.23;;;5.53;;
261;SDS011;114;48.260;10.988;2024-02-26T04:59:47;6.03;;;5.50;;
261;SDS011;114;48.260;10.988;2024-02-26T05:02:14;6.00;;;5.20;;
261;SDS011;114;48.260;10.988;2024-02-26T05:04:40;5.60;;;5.10;;
261;SDS011;114;48.260;10.988;2024-02-26T05:07:06;5.87;;;5.37;;
261;SDS011;114;48.260;10.988;2024-02-26T05:09:32;8.00;;;5.97;;
261;SDS011;114;48.260;10.988;2024-02-26T05:11:57;7.50;;;6.30;;
261;SDS011;114;48.260;10.988;2024-02-26T05:14:23;7.40;;;6.10;;
261;SDS011;114;48.260;10.988;2024-02-26T05:16:49;8.47;;;6.30;;
261;SDS011;114;48.260;10.988;2024-02-26T05:19:15;9.37;;;6.70;;
261;SDS011;114;48.260;10.988;2024-02-26T05:21:41;7.23;;;6.50;;
261;SDS011;114;48.260;10.988;2024-02-26T05:24:09;8.13;;;6.70;;
261;SDS011;114;48.260;10.988;2024-02-26T05:26:35;6.13;;;5.50;;
261;SDS011;114;48.260;10.988;2024-02-26T05:29:00;7.40;;;6.80;;
261;SDS011;114;48.260;10.988;2024-02-26T05:31:26;8.73;;;6.20;;
261;SDS011;114;48.260;10.988;2024-02-26T05:33:54;10.07;;;7.13;;
261;SDS011;114;48.260;10.988;2024-02-26T05:36:21;9.87;;;8.40;;
261;SDS011;114;48.260;10.988;2024-02-26T05:38:47;13.20;;;9.53;;
261;SDS011;114;48.260;10.988;2024-02-26T05:41:15;13.53;;;8.57;;
261;SDS011;114;48.260;10.988;2024-02-26T05:43:41;9.13;;;7.50;;
261;SDS011;114;48.260;10.988;2024-02-26T05:46:07;8.63;;;7.83;;
261;SDS011;114;48.260;10.988;2024-02-26T05:48:33;14.13;;;7.27;;
261;SDS011;114;48.260;10.988;2024-02-26T05:50:59;9.87;;;7.47;;
261;SDS011;114;48.260;10.988;2024-02-26T05:53:24;10.87;;;7.90;;
261;SDS011;114;48.260;10.988;2024-02-26T05:55:50;10.23;;;7.80;;
261;SDS011;114;48.260;10.988;2024-02-26T05:58:16;12.10;;;8.80;;
261;SDS011;114;48.260;10.988;2024-02-26T06:00:41;11.50;;;9.03;;
261;SDS011;114;48.260;10.988;2024-02-26T06:03:07;10.67;;;8.43;;
261;SDS011;114;48.260;10.988;2024-02-26T06:05:33;13.00;;;10.27;;
261;SDS011;114;48.260;10.988;2024-02-26T06:08:00;13.20;;;9.57;;
261;SDS011;114;48.260;10.988;2024-02-26T06:10:28;14.53;;;9.73;;
261;SDS011;114;48.260;10.988;2024-02-26T06:12:54;13.47;;;10.07;;
261;SDS011;114;48.260;10.988;2024-02-26T06:15:20;11.20;;;9.47;;
261;SDS011;114;48.260;10.988;2024-02-26T06:17:45;10.80;;;8.70;;
261;SDS011;114;48.260;10.988;2024-02-26T06:20:11;13.23;;;10.23;;
261;SDS011;114;48.260;10.988;2024-02-26T06:22:39;14.77;;;10.20;;
261;SDS011;114;48.260;10.988;2024-02-26T06:25:06;10.50;;;8.97;;
261;SDS011;114;48.260;10.988;2024-02-26T06:27:32;15.50;;;10.87;;
261;SDS011;114;48.260;10.988;2024-02-26T06:29:58;12.63;;;10.30;;
261;SDS011;114;48.260;10.988;2024-02-26T06:32:25;15.70;;;10.23;;
261;SDS011;114;48.260;10.988;2024-02-26T06:34:53;11.67;;;10.10;;
261;SDS011;114;48.260;10.988;2024-02-26T06:37:19;12.57;;;9.40;;
261;SDS011;114;48.260;10.988;2024-02-26T06:39:44;11.17;;;8.90;;
261;SDS011;114;48.260;10.988;2024-02-26T06:42:11;12.53;;;8.40;;
261;SDS011;114;48.260;10.988;2024-02-26T06:44:37;12.30;;;9.10;;
261;SDS011;114;48.260;10.988;2024-02-26T06:47:03;9.63;;;8.47;;
261;SDS011;114;48.260;10.988;2024-02-26T06:49:29;7.80;;;6.67;;
261;SDS011;114;48.260;10.988;2024-02-26T06:51:55;7.57;;;6.83;;
261;SDS011;114;48.260;10.988;2024-02-26T06:54:23;33.60;;;6.60;;
261;SDS011;114;48.260;10.988;2024-02-26T06:56:49;7.30;;;6.60;;
261;SDS011;114;48.260;10.988;2024-02-26T07:01:45;7.27;;;6.60;;
261;SDS011;114;48.260;10.988;2024-02-26T07:04:11;25.60;;;7.73;;
261;SDS011;114;48.260;10.988;2024-02-26T07:06:36;8.83;;;7.40;;
261;SDS011;114;48.260;10.988;2024-02-26T07:09:02;8.03;;;7.30;;
261;SDS011;114;48.260;10.988;2024-02-26T07:11:28;7.90;;;7.20;;
261;SDS011;114;48.260;10.988;2024-02-26T07:13:54;7.90;;;7.20;;
261;SDS011;114;48.260;10.988;2024-02-26T07:16:19;9.10;;;6.20;;
261;SDS011;114;48.260;10.988;2024-02-26T07:18:59;7.67;;;6.87;;
261;SDS011;114;48.260;10.988;2024-02-26T07:26:49;11.70;;;6.47;;
261;SDS011;114;48.260;10.988;2024-02-26T07:32:06;6.83;;;6.13;;
261;SDS011;114;48.260;10.988;2024-02-26T07:34:33;6.73;;;6.13;;
261;SDS011;114;48.260;10.988;2024-02-26T07:37:12;9.23;;;7.50;;
261;SDS011;114;48.260;10.988;2024-02-26T07:39:38;8.43;;;7.47;;
261;SDS011;114;48.260;10.988;2024-02-26T07:42:04;8.13;;;7.00;;
261;SDS011;114;48.260;10.988;2024-02-26T07:44:29;7.70;;;6.90;;
261;SDS011;114;48.260;10.988;2024-02-26T07:46:57;8.93;;;7.33;;
261;SDS011;114;48.260;10.988;2024-02-26T07:49:25;8.13;;;6.73;;
261;SDS011;114;48.260;10.988;2024-02-26T07:52:00;9.90;;;8.17;;
261;SDS011;114;48.260;10.988;2024-02-26T07:56:58;9.97;;;7.07;;
261;SDS011;114;48.260;10.988;2024-02-26T07:59:24;6.33;;;5.73;;
261;SDS011;114;48.260;10.988;2024-02-26T08:01:51;8.83;;;6.80;;
261;SDS011;114;48.260;10.988;2024-02-26T08:04:17;14.53;;;7.03;;
261;SDS011;114;48.260;10.988;2024-02-26T08:06:42;6.53;;;5.93;;
261;SDS011;114;48.260;10.988;2024-02-26T08:09:08;8.93;;;7.00;;
261;SDS011;114;48.260;10.988;2024-02-26T08:11:35;9.77;;;6.80;;
261;SDS011;114;48.260;10.988;2024-02-26T08:14:02;6.00;;;5.50;;
261;SDS011;114;48.260;10.988;2024-02-26T08:16:28;7.47;;;6.67;;
261;SDS011;114;48.260;10.988;2024-02-26T08:18:54;15.30;;;6.70;;
261;SDS011;114;48.260;10.988;2024-02-26T08:21:26;9.40;;;6.73;;
261;SDS011;114;48.260;10.988;2024-02-26T08:23:59;9.37;;;7.60;;
261;SDS011;114;48.260;10.988;2024-02-26T08:26:35;10.13;;;6.97;;
261;SDS011;114;48.260;10.988;2024-02-26T08:31:48;6.00;;;5.40;;
261;SDS011;114;48.260;10.988;2024-02-26T08:34:16;7.27;;;6.67;;
261;SDS011;114;48.260;10.988;2024-02-26T08:36:44;10.50;;;7.93;;
261;SDS011;114;48.260;10.988;2024-02-26T08:39:10;11.00;;;8.50;;
261;SDS011;114;48.260;10.988;2024-02-26T08:41:38;10.17;;;7.37;;
261;SDS011;114;48.260;10.988;2024-02-26T08:44:03;11.00;;;8.00;;
261;SDS011;114;48.260;10.988;2024-02-26T08:46:30;9.10;;;6.80;;
261;SDS011;114;48.260;10.988;2024-02-26T08:48:56;8.50;;;7.60;;
261;SDS011;114;48.260;10.988;2024-02-26T08:51:21;8.23;;;6.53;;
261;SDS011;114;48.260;10.988;2024-02-26T08:53:48;12.90;;;7.23;;
261;SDS011;114;48.260;10.988;2024-02-26T08:56:16;8.07;;;7.00;;
261;SDS011;114;48.260;10.988;2024-02-26T08:58:43;6.67;;;5.97;;
261;SDS011;114;48.260;10.988;2024-02-26T09:01:09;7.57;;;6.87;;
261;SDS011;114;48.260;10.988;2024-02-26T09:03:34;8.00;;;5.97;;
261;SDS011;114;48.260;10.988;2024-02-26T09:06:00;6.63;;;5.93;;
261;SDS011;114;48.260;10.988;2024-02-26T09:08:29;6.67;;;6.07;;
261;SDS011;114;48.260;10.988;2024-02-26T09:10:54;12.83;;;6.43;;
261;SDS011;114;48.260;10.988;2024-02-26T09:13:29;7.27;;;6.67;;
261;SDS011;114;48.260;10.988;2024-02-26T09:16:06;8.83;;;7.10;;
261;SDS011;114;48.260;10.988;2024-02-26T09:18:46;6.97;;;5.87;;
261;SDS011;114;48.260;10.988;2024-02-26T09:21:18;6.50;;;5.90;;
261;SDS011;114;48.260;10.988;2024-02-26T09:23:56;7.07;;;6.37;;
261;SDS011;114;48.260;10.988;2024-02-26T09:26:22;7.73;;;5.60;;
261;SDS011;114;48.260;10.988;2024-02-26T09:28:48;5.93;;;5.43;;
261;SDS011;114;48.260;10.988;2024-02-26T09:31:17;6.20;;;5.70;;
261;SDS011;114;48.260;10.988;2024-02-26T09:33:43;5.47;;;4.97;;
261;SDS011;114;48.260;10.988;2024-02-26T09:36:09;5.70;;;5.20;;
261;SDS011;114;48.260;10.988;2024-02-26T09:38:36;6.60;;;5.00;;
261;SDS011;114;48.260;10.988;2024-02-26T09:41:03;6.07;;;5.53;;
261;SDS011;114;48.260;10.988;2024-02-26T09:43:33;6.87;;;4.70;;
261;SDS011;114;48.260;10.988;2024-02-26T09:46:01;5.70;;;5.20;;
261;SDS011;114;48.260;10.988;2024-02-26T09:48:26;5.30;;;4.90;;
261;SDS011;114;48.260;10.988;2024-02-26T09:50:54;4.97;;;4.47;;
261;SDS011;114;48.260;10.988;2024-02-26T09:53:20;5.80;;;5.30;;
261;SDS011;114;48.260;10.988;2024-02-26T09:55:49;9.37;;;5.50;;
261;SDS011;114;48.260;10.988;2024-02-26T09:58:15;5.40;;;4.90;;
261;SDS011;114;48.260;10.988;2024-02-26T10:00:46;4.77;;;4.40;;
261;SDS011;114;48.260;10.988;2024-02-26T10:03:29;4.40;;;4.10;;
261;SDS011;114;48.260;10.988;2024-02-26T10:06:11;9.60;;;6.00;;
261;SDS011;114;48.260;10.988;2024-02-26T10:08:40;6.00;;;5.50;;
261;SDS011;114;48.260;10.988;2024-02-26T10:11:07;6.20;;;5.60;;
261;SDS011;114;48.260;10.988;2024-02-26T10:13:36;8.23;;;5.40;;
261;SDS011;114;48.260;10.988;2024-02-26T10:16:03;13.63;;;6.17;;
261;SDS011;114;48.260;10.988;2024-02-26T10:21:20;5.97;;;5.37;;
261;SDS011;114;48.260;10.988;2024-02-26T10:23:46;6.20;;;5.60;;
261;SDS011;114;48.260;10.988;2024-02-26T10:26:19;7.50;;;6.10;;
261;SDS011;114;48.260;10.988;2024-02-26T10:28:48;5.80;;;5.20;;
261;SDS011;114;48.260;10.988;2024-02-26T10:31:15;7.63;;;6.20;;
261;SDS011;114;48.260;10.988;2024-02-26T10:33:41;5.80;;;5.10;;
261;SDS011;114;48.260;10.988;2024-02-26T10:36:08;6.43;;;5.33;;
261;SDS011;114;48.260;10.988;2024-02-26T10:38:34;6.97;;;5.07;;
261;SDS011;114;48.260;10.988;2024-02-26T10:41:02;7.80;;;6.50;;
261;SDS011;114;48.260;10.988;2024-02-26T10:43:28;6.03;;;5.53;;
261;SDS011;114;48.260;10.988;2024-02-26T10:48:24;6.10;;;5.40;;
261;SDS011;114;48.260;10.988;2024-02-26T10:50:50;4.93;;;4.30;;
261;SDS011;114;48.260;10.988;2024-02-26T10:53:23;6.27;;;5.77;;
261;SDS011;114;48.260;10.988;2024-02-26T10:55:57;6.50;;;5.97;;
261;SDS011;114;48.260;10.988;2024-02-26T10:58:26;11.90;;;5.87;;
261;SDS011;114;48.260;10.988;2024-02-26T11:00:55;5.60;;;5.20;;
261;SDS011;114;48.260;10.988;2024-02-26T11:03:22;4.83;;;4.33;;
261;SDS011;114;48.260;10.988;2024-02-26T11:05:50;4.37;;;4.07;;
261;SDS011;114;48.260;10.988;2024-02-26T11:08:19;8.43;;;5.13;;
261;SDS011;114;48.260;10.988;2024-02-26T11:10:50;6.03;;;5.43;;
261;SDS011;114;48.260;10.988;2024-02-26T11:13:18;5.93;;;5.33;;
261;SDS011;114;48.260;10.988;2024-02-26T11:15:46;5.27;;;4.87;;
261;SDS011;114;48.260;10.988;2024-02-26T11:18:15;5.23;;;4.73;;
261;SDS011;114;48.260;10.988;2024-02-26T11:20:45;5.60;;;4.90;;
261;SDS011;114;48.260;10.988;2024-02-26T11:23:14;6.03;;;5.10;;
261;SDS011;114;48.260;10.988;2024-02-26T11:25:46;6.60;;;4.83;;
261;SDS011;114;48.260;10.988;2024-02-26T11:28:15;5.27;;;4.77;;
261;SDS011;114;48.260;10.988;2024-02-26T11:30:44;4.10;;;3.80;;
261;SDS011;114;48.260;10.988;2024-02-26T11:33:12;4.50;;;4.10;;
261;SDS011;114;48.260;10.988;2024-02-26T11:35:40;6.50;;;4.30;;
261;SDS011;114;48.260;10.988;2024-02-26T11:38:07;4.60;;;4.20;;
261;SDS011;114;48.260;10.988;2024-02-26T11:40:39;4.30;;;3.90;;
261;SDS011;114;48.260;10.988;2024-02-26T11:43:07;4.00;;;3.70;;
261;SDS011;114;48.260;10.988;2024-02-26T11:48:28;4.10;;;3.20;;
261;SDS011;114;48.260;10.988;2024-02-26T11:50:55;5.13;;;2.80;;
261;SDS011;114;48.260;10.988;2024-02-26T11:53:26;4.13;;;3.17;;
261;SDS011;114;48.260;10.988;2024-02-26T11:58:40;7.90;;;2.60;;
261;SDS011;114;48.260;10.988;2024-02-26T12:01:52;6.27;;;2.20;;
261;SDS011;114;48.260;10.988;2024-02-26T12:06:50;2.60;;;2.40;;
261;SDS011;114;48.260;10.988;2024-02-26T12:12:17;1.70;;;1.60;;
261;SDS011;114;48.260;10.988;2024-02-26T12:14:53;2.70;;;2.50;;
261;SDS011;114;48.260;10.988;2024-02-26T12:17:28;3.47;;;3.00;;
261;SDS011;114;48.260;10.988;2024-02-26T12:19:55;3.03;;;2.83;;
261;SDS011;114;48.260;10.988;2024-02-26T12:22:35;2.93;;;2.60;;
261;SDS011;114;48.260;10.988;2024-02-26T12:25:04;3.97;;;3.60;;
261;SDS011;114;48.260;10.988;2024-02-26T12:27:31;1.80;;;1.70;;
261;SDS011;114;48.260;10.988;2024-02-26T12:29:59;2.00;;;1.90;;
261;SDS011;114;48.260;10.988;2024-02-26T12:32:25;2.20;;;2.00;;
261;SDS011;114;48.260;10.988;2024-02-26T12:34:52;2.93;;;1.87;;
261;SDS011;114;48.260;10.988;2024-02-26T12:37:17;3.20;;;1.43;;
261;SDS011;114;48.260;10.988;2024-02-26T12:39:43;3.80;;;1.50;;
261;SDS011;114;48.260;10.988;2024-02-26T12:42:10;2.03;;;1.90;;
261;SDS011;114;48.260;10.988;2024-02-26T12:44:37;3.60;;;2.00;;
261;SDS011;114;48.260;10.988;2024-02-26T12:47:03;3.60;;;1.30;;
261;SDS011;114;48.260;10.988;2024-02-26T12:49:29;1.20;;;1.20;;
261;SDS011;114;48.260;10.988;2024-02-26T12:51:58;1.10;;;1.00;;
261;SDS011;114;48.260;10.988;2024-02-26T12:54:33;5.07;;;1.10;;
261;SDS011;114;48.260;10.988;2024-02-26T12:57:06;3.10;;;1.53;;
261;SDS011;114;48.260;10.988;2024-02-26T12:59:36;1.97;;;1.87;;
261;SDS011;114;48.260;10.988;2024-02-26T13:02:02;1.70;;;1.60;;
261;SDS011;114;48.260;10.988;2024-02-26T13:04:30;1.73;;;1.63;;
261;SDS011;114;48.260;10.988;2024-02-26T13:06:56;1.97;;;1.60;;
261;SDS011;114;48.260;10.988;2024-02-26T13:09:31;6.83;;;2.10;;
261;SDS011;114;48.260;10.988;2024-02-26T13:12:00;1.00;;;1.00;;
261;SDS011;114;48.260;10.988;2024-02-26T13:14:30;1.80;;;1.70;;
261;SDS011;114;48.260;10.988;2024-02-26T13:17:00;1.60;;;1.50;;
261;SDS011;114;48.260;10.988;2024-02-26T13:19:26;3.20;;;1.40;;
261;SDS011;114;48.260;10.988;2024-02-26T13:21:55;1.30;;;1.20;;
261;SDS011;114;48.260;10.988;2024-02-26T13:24:21;1.37;;;1.30;;
261;SDS011;114;48.260;10.988;2024-02-26T13:26:53;1.60;;;1.50;;
261;SDS011;114;48.260;10.988;2024-02-26T13:29:19;1.37;;;1.27;;
261;SDS011;114;48.260;10.988;2024-02-26T13:31:47;3.43;;;1.40;;
261;SDS011;114;48.260;10.988;2024-02-26T13:34:30;2.17;;;1.33;;
261;SDS011;114;48.260;10.988;2024-02-26T13:36:56;2.87;;;1.13;;
261;SDS011;114;48.260;10.988;2024-02-26T13:39:22;2.63;;;1.60;;
261;SDS011;114;48.260;10.988;2024-02-26T13:41:51;3.23;;;2.40;;
261;SDS011;114;48.260;10.988;2024-02-26T13:44:26;6.60;;;2.23;;
261;SDS011;114;48.260;10.988;2024-02-26T13:46:53;2.70;;;2.50;;
261;SDS011;114;48.260;10.988;2024-02-26T13:49:19;1.87;;;1.77;;
261;SDS011;114;48.260;10.988;2024-02-26T13:51:44;1.50;;;1.40;;
261;SDS011;114;48.260;10.988;2024-02-26T13:54:10;1.60;;;1.50;;
261;SDS011;114;48.260;10.988;2024-02-26T13:56:36;3.80;;;1.07;;
261;SDS011;114;48.260;10.988;2024-02-26T13:59:02;4.07;;;1.70;;
261;SDS011;114;48.260;10.988;2024-02-26T14:01:30;3.73;;;1.30;;
261;SDS011;114;48.260;10.988;2024-02-26T14:04:01;1.33;;;1.20;;
261;SDS011;114;48.260;10.988;2024-02-26T14:06:28;0.80;;;0.80;;
261;SDS011;114;48.260;10.988;2024-02-26T14:08:57;1.17;;;1.13;;
261;SDS011;114;48.260;10.988;2024-02-26T14:11:25;1.27;;;1.17;;
261;SDS011;114;48.260;10.988;2024-02-26T14:13:54;1.47;;;1.37;;
261;SDS011;114;48.260;10.988;2024-02-26T14:18:49;3.83;;;1.30;;
261;SDS011;114;48.260;10.988;2024-02-26T14:21:18;1.43;;;1.03;;
261;SDS011;114;48.260;10.988;2024-02-26T14:23:50;1.90;;;1.23;;
261;SDS011;114;48.260;10.988;2024-02-26T14:26:28;1.87;;;1.73;;
261;SDS011;114;48.260;10.988;2024-02-26T14:29:02;1.40;;;1.23;;
261;SDS011;114;48.260;10.988;2024-02-26T14:31:28;1.13;;;1.03;;
261;SDS011;114;48.260;10.988;2024-02-26T14:36:40;2.13;;;2.00;;
261;SDS011;114;48.260;10.988;2024-02-26T14:39:06;1.60;;;1.50;;
261;SDS011;114;48.260;10.988;2024-02-26T14:41:32;2.37;;;2.17;;
261;SDS011;114;48.260;10.988;2024-02-26T14:46:36;2.53;;;2.13;;
261;SDS011;114;48.260;10.988;2024-02-26T14:49:03;3.13;;;2.73;;
261;SDS011;114;48.260;10.988;2024-02-26T14:51:31;2.87;;;2.67;;
261;SDS011;114;48.260;10.988;2024-02-26T14:53:58;2.80;;;2.60;;
261;SDS011;114;48.260;10.988;2024-02-26T14:56:38;6.80;;;3.57;;
261;SDS011;114;48.260;10.988;2024-02-26T14:59:07;3.83;;;3.00;;
261;SDS011;114;48.260;10.988;2024-02-26T15:01:34;2.80;;;2.60;;
261;SDS011;114;48.260;10.988;2024-02-26T15:04:01;2.73;;;2.60;;
261;SDS011;114;48.260;10.988;2024-02-26T15:06:28;3.13;;;2.20;;
261;SDS011;114;48.260;10.988;2024-02-26T15:08:55;4.37;;;2.80;;
261;SDS011;114;48.260;10.988;2024-02-26T15:11:24;8.50;;;3.17;;
261;SDS011;114;48.260;10.988;2024-02-26T15:13:52;3.47;;;3.17;;
261;SDS011;114;48.260;10.988;2024-02-26T15:18:48;3.23;;;2.93;;
261;SDS011;114;48.260;10.988;2024-02-26T15:21:14;2.80;;;2.60;;
261;SDS011;114;48.260;10.988;2024-02-26T15:23:42;3.10;;;2.90;;
261;SDS011;114;48.260;10.988;2024-02-26T15:26:19;4.90;;;3.23;;
261;SDS011;114;48.260;10.988;2024-02-26T15:28:45;23.17;;;4.10;;
261;SDS011;114;48.260;10.988;2024-02-26T15:31:11;19.50;;;3.17;;
261;SDS011;114;48.260;10.988;2024-02-26T15:33:38;10.23;;;3.67;;
261;SDS011;114;48.260;10.988;2024-02-26T15:36:04;4.37;;;2.83;;
261;SDS011;114;48.260;10.988;2024-02-26T15:38:34;4.13;;;3.00;;
261;SDS011;114;48.260;10.988;2024-02-26T15:41:01;2.83;;;2.30;;
261;SDS011;114;48.260;10.988;2024-02-26T15:43:29;9.53;;;3.03;;
261;SDS011;114;48.260;10.988;2024-02-26T15:48:31;4.07;;;3.73;;
261;SDS011;114;48.260;10.988;2024-02-26T15:50:57;4.10;;;3.70;;
261;SDS011;114;48.260;10.988;2024-02-26T15:53:24;5.90;;;4.00;;
261;SDS011;114;48.260;10.988;2024-02-26T15:55:51;5.10;;;3.17;;
261;SDS011;114;48.260;10.988;2024-02-26T15:58:25;6.17;;;2.00;;
261;SDS011;114;48.260;10.988;2024-02-26T16:01:03;5.20;;;2.27;;
261;SDS011;114;48.260;10.988;2024-02-26T16:03:30;1.80;;;1.70;;
261;SDS011;114;48.260;10.988;2024-02-26T16:05:55;10.57;;;2.30;;
261;SDS011;114;48.260;10.988;2024-02-26T16:08:21;1.70;;;1.60;;
261;SDS011;114;48.260;10.988;2024-02-26T16:10:49;2.13;;;1.63;;
261;SDS011;114;48.260;10.988;2024-02-26T16:13:15;2.27;;;2.07;;
261;SDS011;114;48.260;10.988;2024-02-26T16:15:42;2.30;;;2.20;;